CheckWX is a tool to help pilots better visualize weather data.  It is not intended as a substitute for an official pre-flight weather briefing.

17:20:10 UTC

KUTS TAF
Huntsville Municipal Airport
Huntsville, Texas, USA
KUTS 201120Z 2012/2112 VRB03KT P6SM FEW030 FM202100 18007G20KT P6SM VCTS SCT050CB BKN100 FM210100 17010KT P6SM BKN050 FM210700 19006KT P6SM VCSH OVC050 TEMPO 2109/2112 P6SM -TSRA BKN050CB

Oct-20@
12:00 UTC

Oct-20 @ 12:00 UTC

Oct-20@
21:00 UTC

Oct-20 @ 21:00 UTC

KUTS 201120Z 2012/2112 VRB03KT P6SM FEW030
Wind
  • Variable at 3 KTS
Cloud Levels
  • Few at 3,000' AGL

Oct-20@
21:00 UTC

Oct-20 @ 21:00 UTC

Oct-21@
01:00 UTC

Oct-21 @ 01:00 UTC

FM202100 18007G20KT P6SM VCTS SCT050CB BKN100

From

From Standard forecast or significant change

Wind
  • 180° at 7 KTS
  • {Gusting to 20 KTS
Conditions
Area Thunderstorm
Cloud Levels
  • Scattered at 5,000' AGL
  • Broken at 10,000' AGL

Oct-21@
01:00 UTC

Oct-21 @ 01:00 UTC

Oct-21@
07:00 UTC

Oct-21 @ 07:00 UTC

FM210100 17010KT P6SM BKN050

From

From Standard forecast or significant change

Wind
  • 170° at 10 KTS
Cloud Levels
  • Broken at 5,000' AGL

Oct-21@
07:00 UTC

Oct-21 @ 07:00 UTC

Oct-21@
12:00 UTC

Oct-21 @ 12:00 UTC

FM210700 19006KT P6SM VCSH OVC050

From

From Standard forecast or significant change

Wind
  • 190° at 6 KTS
Cloud Levels
  • Overcast at 5,000' AGL

Oct-21@
09:00 UTC

Oct-21 @ 09:00 UTC

Oct-21@
12:00 UTC

Oct-21 @ 12:00 UTC

TEMPO 2109/2112 P6SM -TSRA BKN050CB

Temporary

Temporary Changes expected for less than half the time period

Conditions
Light Thunderstorm, Light Rain
Cloud Levels
  • Broken at 5,000' AGL